sensor_id;sensor_type;location;lat;lon;timestamp;pressure;altitude;pressure_sealevel;temperature;humidity
78444;BME280;67739;52.986;8.894;2023-09-18T00:01:35;101028.72;;;18.68;74.14
78444;BME280;67739;52.986;8.894;2023-09-18T00:04:01;101022.53;;;18.66;74.48
78444;BME280;67739;52.986;8.894;2023-09-18T00:06:26;101024.50;;;18.64;74.52
78444;BME280;67739;52.986;8.894;2023-09-18T00:08:51;101024.75;;;18.61;74.40
78444;BME280;67739;52.986;8.894;2023-09-18T00:11:18;101035.75;;;18.59;74.32
78444;BME280;67739;52.986;8.894;2023-09-18T00:13:43;101034.97;;;18.57;74.19
78444;BME280;67739;52.986;8.894;2023-09-18T00:16:09;101020.72;;;18.54;74.34
78444;BME280;67739;52.986;8.894;2023-09-18T00:18:34;101019.97;;;18.52;74.53
78444;BME280;67739;52.986;8.894;2023-09-18T00:20:59;101021.06;;;18.49;74.47
78444;BME280;67739;52.986;8.894;2023-09-18T00:23:25;101021.19;;;18.48;74.53
78444;BME280;67739;52.986;8.894;2023-09-18T00:25:50;101008.75;;;18.45;74.64
78444;BME280;67739;52.986;8.894;2023-09-18T00:28:16;101007.13;;;18.43;74.71
78444;BME280;67739;52.986;8.894;2023-09-18T00:30:48;101003.66;;;18.41;74.63
78444;BME280;67739;52.986;8.894;2023-09-18T00:33:14;100989.44;;;18.37;74.81
78444;BME280;67739;52.986;8.894;2023-09-18T00:35:40;100982.38;;;18.34;74.74
78444;BME280;67739;52.986;8.894;2023-09-18T00:38:05;100980.66;;;18.33;74.33
78444;BME280;67739;52.986;8.894;2023-09-18T00:40:32;100964.63;;;18.30;74.61
78444;BME280;67739;52.986;8.894;2023-09-18T00:42:58;100966.59;;;18.28;74.76
78444;BME280;67739;52.986;8.894;2023-09-18T00:45:23;100962.13;;;18.27;74.74
78444;BME280;67739;52.986;8.894;2023-09-18T00:47:49;100961.50;;;18.24;74.55
78444;BME280;67739;52.986;8.894;2023-09-18T00:50:15;100958.03;;;18.22;74.61
78444;BME280;67739;52.986;8.894;2023-09-18T00:52:41;100947.41;;;18.19;74.66
78444;BME280;67739;52.986;8.894;2023-09-18T00:55:07;100935.81;;;18.17;74.80
78444;BME280;67739;52.986;8.894;2023-09-18T00:57:33;100933.22;;;18.15;74.88
78444;BME280;67739;52.986;8.894;2023-09-18T00:59:59;100924.31;;;18.13;74.92
78444;BME280;67739;52.986;8.894;2023-09-18T01:02:24;100917.28;;;18.11;74.79
78444;BME280;67739;52.986;8.894;2023-09-18T01:04:50;100915.53;;;18.10;74.82
78444;BME280;67739;52.986;8.894;2023-09-18T01:07:15;100899.47;;;18.07;74.98
78444;BME280;67739;52.986;8.894;2023-09-18T01:09:41;100893.31;;;18.05;74.94
78444;BME280;67739;52.986;8.894;2023-09-18T01:12:18;100892.59;;;18.02;75.02
78444;BME280;67739;52.986;8.894;2023-09-18T01:15:07;100891.84;;;18.00;75.03
78444;BME280;67739;52.986;8.894;2023-09-18T01:17:37;100892.81;;;17.99;75.23
78444;BME280;67739;52.986;8.894;2023-09-18T01:20:04;100883.06;;;17.97;74.77
78444;BME280;67739;52.986;8.894;2023-09-18T01:22:31;100881.44;;;17.94;74.80
78444;BME280;67739;52.986;8.894;2023-09-18T01:24:57;100868.97;;;17.92;75.23
78444;BME280;67739;52.986;8.894;2023-09-18T01:27:23;100862.78;;;17.90;74.96
78444;BME280;67739;52.986;8.894;2023-09-18T01:29:48;100859.22;;;17.89;75.24
78444;BME280;67739;52.986;8.894;2023-09-18T01:32:15;100858.50;;;17.87;74.89
78444;BME280;67739;52.986;8.894;2023-09-18T01:34:48;100857.72;;;17.85;75.10
78444;BME280;67739;52.986;8.894;2023-09-18T01:37:17;100853.41;;;17.83;75.16
78444;BME280;67739;52.986;8.894;2023-09-18T01:39:45;100856.22;;;17.81;75.24
78444;BME280;67739;52.986;8.894;2023-09-18T01:42:12;100846.47;;;17.79;75.04
78444;BME280;67739;52.986;8.894;2023-09-18T01:44:37;100854.72;;;17.77;75.04
78444;BME280;67739;52.986;8.894;2023-09-18T01:47:06;100863.00;;;17.76;75.20
78444;BME280;67739;52.986;8.894;2023-09-18T01:49:33;100861.25;;;17.75;75.25
78444;BME280;67739;52.986;8.894;2023-09-18T01:51:59;100850.53;;;17.73;75.34
78444;BME280;67739;52.986;8.894;2023-09-18T01:54:25;100849.78;;;17.71;75.16
78444;BME280;67739;52.986;8.894;2023-09-18T01:56:51;100840.03;;;17.69;75.10
78444;BME280;67739;52.986;8.894;2023-09-18T01:59:17;100834.72;;;17.67;74.97
78444;BME280;67739;52.986;8.894;2023-09-18T02:01:43;100829.41;;;17.65;75.12
78444;BME280;67739;52.986;8.894;2023-09-18T02:04:08;100823.22;;;17.63;75.22
78444;BME280;67739;52.986;8.894;2023-09-18T02:06:34;100829.72;;;17.61;75.45
78444;BME280;67739;52.986;8.894;2023-09-18T02:08:59;100826.28;;;17.59;75.53
78444;BME280;67739;52.986;8.894;2023-09-18T02:11:25;100834.53;;;17.57;75.43
78444;BME280;67739;52.986;8.894;2023-09-18T02:13:51;100825.66;;;17.55;75.38
78444;BME280;67739;52.986;8.894;2023-09-18T02:16:16;100828.47;;;17.54;75.25
78444;BME280;67739;52.986;8.894;2023-09-18T02:18:41;100825.00;;;17.52;75.23
78444;BME280;67739;52.986;8.894;2023-09-18T02:21:08;100827.84;;;17.50;75.47
78444;BME280;67739;52.986;8.894;2023-09-18T02:23:34;100820.81;;;17.48;75.27
78444;BME280;67739;52.986;8.894;2023-09-18T02:25:59;100817.34;;;17.46;75.34
78444;BME280;67739;52.986;8.894;2023-09-18T02:28:24;100821.16;;;17.43;75.31
78444;BME280;67739;52.986;8.894;2023-09-18T02:30:51;100817.59;;;17.43;75.63
78444;BME280;67739;52.986;8.894;2023-09-18T02:33:16;100817.81;;;17.40;75.53
78444;BME280;67739;52.986;8.894;2023-09-18T02:35:41;100813.38;;;17.39;75.29
78444;BME280;67739;52.986;8.894;2023-09-18T02:38:08;100806.34;;;17.36;75.51
78444;BME280;67739;52.986;8.894;2023-09-18T02:40:34;100810.88;;;17.36;75.50
78444;BME280;67739;52.986;8.894;2023-09-18T02:42:59;100808.41;;;17.32;75.26
78444;BME280;67739;52.986;8.894;2023-09-18T02:45:24;100803.97;;;17.31;75.65
78444;BME280;67739;52.986;8.894;2023-09-18T02:47:50;100794.25;;;17.29;75.30
78444;BME280;67739;52.986;8.894;2023-09-18T02:50:15;100795.22;;;17.28;75.66
78444;BME280;67739;52.986;8.894;2023-09-18T02:52:40;100803.47;;;17.26;75.34
78444;BME280;67739;52.986;8.894;2023-09-18T02:55:06;100798.16;;;17.25;75.59
78444;BME280;67739;52.986;8.894;2023-09-18T02:57:32;100799.13;;;17.24;75.41
78444;BME280;67739;52.986;8.894;2023-09-18T02:59:57;100779.41;;;17.22;75.61
78444;BME280;67739;52.986;8.894;2023-09-18T03:02:23;100782.22;;;17.20;75.65
78444;BME280;67739;52.986;8.894;2023-09-18T03:04:49;100785.06;;;17.19;75.54
78444;BME280;67739;52.986;8.894;2023-09-18T03:07:14;100782.44;;;17.17;75.91
78444;BME280;67739;52.986;8.894;2023-09-18T03:09:41;100782.59;;;17.16;75.50
78444;BME280;67739;52.986;8.894;2023-09-18T03:12:06;100780.88;;;17.15;75.83
78444;BME280;67739;52.986;8.894;2023-09-18T03:14:32;100792.69;;;17.14;75.74
78444;BME280;67739;52.986;8.894;2023-09-18T03:16:58;100781.97;;;17.12;75.72
78444;BME280;67739;52.986;8.894;2023-09-18T03:19:23;100768.50;;;17.11;75.71
78444;BME280;67739;52.986;8.894;2023-09-18T03:21:49;100762.22;;;17.10;75.54
78444;BME280;67739;52.986;8.894;2023-09-18T03:24:15;100752.47;;;17.08;75.88
78444;BME280;67739;52.986;8.894;2023-09-18T03:26:40;100748.91;;;17.07;75.64
78444;BME280;67739;52.986;8.894;2023-09-18T03:29:05;100743.59;;;17.06;76.04
78444;BME280;67739;52.986;8.894;2023-09-18T03:31:31;100730.03;;;17.06;75.74
78444;BME280;67739;52.986;8.894;2023-09-18T03:33:56;100729.06;;;17.07;76.00
78444;BME280;67739;52.986;8.894;2023-09-18T03:36:22;100721.91;;;17.06;76.08
78444;BME280;67739;52.986;8.894;2023-09-18T03:38:48;100712.16;;;17.03;76.13
78444;BME280;67739;52.986;8.894;2023-09-18T03:41:14;100711.28;;;17.03;76.10
78444;BME280;67739;52.986;8.894;2023-09-18T03:43:39;100701.59;;;17.00;75.84
78444;BME280;67739;52.986;8.894;2023-09-18T03:46:06;100696.16;;;17.00;76.71
78444;BME280;67739;52.986;8.894;2023-09-18T03:48:32;100695.28;;;17.00;76.19
78444;BME280;67739;52.986;8.894;2023-09-18T03:51:03;100689.00;;;16.99;76.47
78444;BME280;67739;52.986;8.894;2023-09-18T03:53:29;100681.84;;;16.98;76.77
78444;BME280;67739;52.986;8.894;2023-09-18T03:55:54;100674.72;;;16.97;76.71
78444;BME280;67739;52.986;8.894;2023-09-18T03:58:20;100662.13;;;16.96;76.69
78444;BME280;67739;52.986;8.894;2023-09-18T04:00:45;100648.47;;;16.98;77.07
78444;BME280;67739;52.986;8.894;2023-09-18T04:03:10;100642.19;;;16.97;77.05
78444;BME280;67739;52.986;8.894;2023-09-18T04:05:36;100640.47;;;16.96;76.61
78444;BME280;67739;52.986;8.894;2023-09-18T04:08:01;100638.72;;;16.95;76.90
78444;BME280;67739;52.986;8.894;2023-09-18T04:10:27;100637.97;;;16.93;76.75
78444;BME280;67739;52.986;8.894;2023-09-18T04:12:52;100635.38;;;16.91;76.84
78444;BME280;67739;52.986;8.894;2023-09-18T04:15:18;100616.53;;;16.90;76.65
78444;BME280;67739;52.986;8.894;2023-09-18T04:17:44;100616.53;;;16.90;76.75
78444;BME280;67739;52.986;8.894;2023-09-18T04:20:10;100592.25;;;16.88;76.76
78444;BME280;67739;52.986;8.894;2023-09-18T04:22:42;100593.13;;;16.89;76.60
78444;BME280;67739;52.986;8.894;2023-09-18T04:25:08;100585.00;;;16.89;76.87
78444;BME280;67739;52.986;8.894;2023-09-18T04:27:33;100581.31;;;16.90;76.80
78444;BME280;67739;52.986;8.894;2023-09-18T04:29:59;100591.28;;;16.89;76.68
78444;BME280;67739;52.986;8.894;2023-09-18T04:32:27;100573.44;;;16.87;76.47
78444;BME280;67739;52.986;8.894;2023-09-18T04:34:52;100567.16;;;16.86;76.64
78444;BME280;67739;52.986;8.894;2023-09-18T04:37:18;100562.72;;;16.85;76.76
78444;BME280;67739;52.986;8.894;2023-09-18T04:39:43;100559.03;;;16.86;77.01
78444;BME280;67739;52.986;8.894;2023-09-18T04:42:09;100551.75;;;16.87;76.92
78444;BME280;67739;52.986;8.894;2023-09-18T04:44:34;100545.59;;;16.85;76.83
78444;BME280;67739;52.986;8.894;2023-09-18T04:46:59;100542.03;;;16.84;76.93
78444;BME280;67739;52.986;8.894;2023-09-18T04:49:25;100527.50;;;16.85;76.93
78444;BME280;67739;52.986;8.894;2023-09-18T04:51:51;100525.66;;;16.86;77.25
78444;BME280;67739;52.986;8.894;2023-09-18T04:54:16;100514.81;;;16.86;77.42
78444;BME280;67739;52.986;8.894;2023-09-18T04:56:41;100512.97;;;16.86;77.41
78444;BME280;67739;52.986;8.894;2023-09-18T04:59:06;100504.84;;;16.86;77.66
78444;BME280;67739;52.986;8.894;2023-09-18T05:01:32;100496.72;;;16.86;77.90
78444;BME280;67739;52.986;8.894;2023-09-18T05:03:57;100494.88;;;16.87;77.63
78444;BME280;67739;52.986;8.894;2023-09-18T05:06:23;100491.28;;;16.86;77.85
78444;BME280;67739;52.986;8.894;2023-09-18T05:08:48;100486.00;;;16.85;77.97
78444;BME280;67739;52.986;8.894;2023-09-18T05:11:14;100492.38;;;16.84;77.65
78444;BME280;67739;52.986;8.894;2023-09-18T05:13:39;100481.56;;;16.84;77.90
78444;BME280;67739;52.986;8.894;2023-09-18T05:16:04;100488.81;;;16.83;77.76
78444;BME280;67739;52.986;8.894;2023-09-18T05:18:30;100475.38;;;16.82;77.78
78444;BME280;67739;52.986;8.894;2023-09-18T05:20:55;100478.09;;;16.82;77.55
78444;BME280;67739;52.986;8.894;2023-09-18T05:23:21;100471.94;;;16.80;77.57
78444;BME280;67739;52.986;8.894;2023-09-18T05:25:46;100466.50;;;16.80;77.70
78444;BME280;67739;52.986;8.894;2023-09-18T05:28:11;100465.53;;;16.81;77.86
78444;BME280;67739;52.986;8.894;2023-09-18T05:30:37;100460.97;;;16.81;78.21
78444;BME280;67739;52.986;8.894;2023-09-18T05:33:06;100460.88;;;16.83;78.31
78444;BME280;67739;52.986;8.894;2023-09-18T05:37:57;100451.75;;;16.84;78.28
78444;BME280;67739;52.986;8.894;2023-09-18T05:40:23;100459.75;;;16.85;78.48
78444;BME280;67739;52.986;8.894;2023-09-18T05:42:54;100479.59;;;16.86;78.44
78444;BME280;67739;52.986;8.894;2023-09-18T05:45:20;100483.16;;;16.86;78.76
78444;BME280;67739;52.986;8.894;2023-09-18T05:47:46;100484.88;;;16.87;78.72
78444;BME280;67739;52.986;8.894;2023-09-18T05:50:12;100478.59;;;16.87;78.89
78444;BME280;67739;52.986;8.894;2023-09-18T05:52:46;100484.88;;;16.87;79.10
78444;BME280;67739;52.986;8.894;2023-09-18T05:55:13;100467.63;;;16.88;78.81
78444;BME280;67739;52.986;8.894;2023-09-18T05:57:39;100449.50;;;16.89;79.23
78444;BME280;67739;52.986;8.894;2023-09-18T06:00:05;100438.56;;;16.90;79.28
78444;BME280;67739;52.986;8.894;2023-09-18T06:02:31;100435.72;;;16.92;79.52
78444;BME280;67739;52.986;8.894;2023-09-18T06:05:00;100429.22;;;16.94;79.70
78444;BME280;67739;52.986;8.894;2023-09-18T06:07:29;100429.09;;;16.96;79.69
78444;BME280;67739;52.986;8.894;2023-09-18T06:09:56;100416.41;;;16.96;79.77
78444;BME280;67739;52.986;8.894;2023-09-18T06:12:21;100418.13;;;16.98;79.93
78444;BME280;67739;52.986;8.894;2023-09-18T06:14:47;100429.72;;;17.00;80.08
78444;BME280;67739;52.986;8.894;2023-09-18T06:17:13;100421.47;;;17.01;80.43
78444;BME280;67739;52.986;8.894;2023-09-18T06:19:40;100420.31;;;17.04;80.24
78444;BME280;67739;52.986;8.894;2023-09-18T06:22:05;100419.34;;;17.05;80.55
78444;BME280;67739;52.986;8.894;2023-09-18T06:24:32;100410.22;;;17.06;80.38
78444;BME280;67739;52.986;8.894;2023-09-18T06:26:57;100416.38;;;17.08;80.60
78444;BME280;67739;52.986;8.894;2023-09-18T06:29:23;100414.41;;;17.10;80.38
78444;BME280;67739;52.986;8.894;2023-09-18T06:31:49;100412.44;;;17.12;80.76
78444;BME280;67739;52.986;8.894;2023-09-18T06:34:15;100411.47;;;17.13;80.60
78444;BME280;67739;52.986;8.894;2023-09-18T06:36:40;100415.78;;;17.15;80.54
78444;BME280;67739;52.986;8.894;2023-09-18T06:39:06;100406.50;;;17.18;80.86
78444;BME280;67739;52.986;8.894;2023-09-18T06:41:31;100418.97;;;17.20;80.89
78444;BME280;67739;52.986;8.894;2023-09-18T06:43:56;100397.88;;;17.24;80.74
78444;BME280;67739;52.986;8.894;2023-09-18T06:46:22;100404.91;;;17.26;80.83
78444;BME280;67739;52.986;8.894;2023-09-18T06:48:47;100409.22;;;17.29;81.11
78444;BME280;67739;52.986;8.894;2023-09-18T06:51:14;100408.09;;;17.31;81.08
78444;BME280;67739;52.986;8.894;2023-09-18T06:53:39;100406.97;;;17.34;81.04
78444;BME280;67739;52.986;8.894;2023-09-18T06:56:05;100408.59;;;17.37;81.16
78444;BME280;67739;52.986;8.894;2023-09-18T06:58:31;100420.16;;;17.39;80.93
78444;BME280;67739;52.986;8.894;2023-09-18T07:00:56;100408.22;;;17.41;81.08
78444;BME280;67739;52.986;8.894;2023-09-18T07:03:23;100421.53;;;17.44;80.71
78444;BME280;67739;52.986;8.894;2023-09-18T07:05:48;100405.09;;;17.46;81.19
78444;BME280;67739;52.986;8.894;2023-09-18T07:08:14;100417.44;;;17.50;80.97
78444;BME280;67739;52.986;8.894;2023-09-18T07:10:41;100408.19;;;17.52;80.90
78444;BME280;67739;52.986;8.894;2023-09-18T07:13:06;100409.78;;;17.55;81.36
78444;BME280;67739;52.986;8.894;2023-09-18T07:15:32;100394.25;;;17.57;81.30
78444;BME280;67739;52.986;8.894;2023-09-18T07:17:57;100394.00;;;17.60;81.13
78444;BME280;67739;52.986;8.894;2023-09-18T07:20:22;100391.13;;;17.61;81.20
78444;BME280;67739;52.986;8.894;2023-09-18T07:22:49;100399.91;;;17.65;81.46
78444;BME280;67739;52.986;8.894;2023-09-18T07:25:16;100399.66;;;17.68;81.11
78444;BME280;67739;52.986;8.894;2023-09-18T07:27:41;100409.53;;;17.69;81.16
78444;BME280;67739;52.986;8.894;2023-09-18T07:30:09;100420.13;;;17.72;81.22
78444;BME280;67739;52.986;8.894;2023-09-18T07:32:35;100416.41;;;17.73;81.49
78444;BME280;67739;52.986;8.894;2023-09-18T07:35:01;100428.72;;;17.77;81.19
78444;BME280;67739;52.986;8.894;2023-09-18T07:37:26;100417.75;;;17.79;81.16
78444;BME280;67739;52.986;8.894;2023-09-18T07:39:52;100423.91;;;17.81;81.28
78444;BME280;67739;52.986;8.894;2023-09-18T07:42:18;100421.94;;;17.83;81.57
78444;BME280;67739;52.986;8.894;2023-09-18T07:44:43;100420.69;;;17.87;81.25
78444;BME280;67739;52.986;8.894;2023-09-18T07:47:09;100417.84;;;17.88;81.67
78444;BME280;67739;52.986;8.894;2023-09-18T07:49:34;100425.69;;;17.91;81.62
78444;BME280;67739;52.986;8.894;2023-09-18T07:52:00;100431.75;;;17.95;81.50
78444;BME280;67739;52.986;8.894;2023-09-18T07:54:25;100432.47;;;17.97;81.47
78444;BME280;67739;52.986;8.894;2023-09-18T07:56:50;100427.66;;;18.00;81.52
78444;BME280;67739;52.986;8.894;2023-09-18T07:59:16;100431.09;;;18.02;81.52
78444;BME280;67739;52.986;8.894;2023-09-18T08:01:42;100433.53;;;18.06;81.73
78444;BME280;67739;52.986;8.894;2023-09-18T08:04:07;100439.56;;;18.09;81.70
78444;BME280;67739;52.986;8.894;2023-09-18T08:06:32;100426.59;;;18.13;82.01
78444;BME280;67739;52.986;8.894;2023-09-18T08:08:58;100423.63;;;18.16;81.97
78444;BME280;67739;52.986;8.894;2023-09-18T08:11:23;100404.34;;;18.19;81.93
78444;BME280;67739;52.986;8.894;2023-09-18T08:13:48;100419.53;;;18.21;82.12
78444;BME280;67739;52.986;8.894;2023-09-18T08:16:14;100432.59;;;18.27;82.05
78444;BME280;67739;52.986;8.894;2023-09-18T08:18:39;100429.59;;;18.30;82.34
78444;BME280;67739;52.986;8.894;2023-09-18T08:21:07;100432.78;;;18.35;82.46
78444;BME280;67739;52.986;8.894;2023-09-18T08:23:35;100424.09;;;18.42;82.31
78444;BME280;67739;52.986;8.894;2023-09-18T08:26:00;100440.00;;;18.46;82.95
78444;BME280;67739;52.986;8.894;2023-09-18T08:28:26;100434.03;;;18.52;82.46
78444;BME280;67739;52.986;8.894;2023-09-18T08:30:51;100441.78;;;18.57;82.85
78444;BME280;67739;52.986;8.894;2023-09-18T08:33:17;100438.69;;;18.61;83.17
78444;BME280;67739;52.986;8.894;2023-09-18T08:35:42;100450.75;;;18.68;82.91
78444;BME280;67739;52.986;8.894;2023-09-18T08:38:09;100451.22;;;18.74;83.35
78444;BME280;67739;52.986;8.894;2023-09-18T08:40:34;100455.13;;;18.81;83.15
78444;BME280;67739;52.986;8.894;2023-09-18T08:43:03;100442.72;;;18.88;83.35
78444;BME280;67739;52.986;8.894;2023-09-18T08:48:00;100432.47;;;19.01;83.42
78444;BME280;67739;52.986;8.894;2023-09-18T08:50:26;100410.88;;;19.09;83.25
78444;BME280;67739;52.986;8.894;2023-09-18T08:52:53;100412.94;;;19.17;83.48
78444;BME280;67739;52.986;8.894;2023-09-18T08:55:19;100414.94;;;19.24;83.56
78444;BME280;67739;52.986;8.894;2023-09-18T08:57:46;100405.25;;;19.31;83.82
78444;BME280;67739;52.986;8.894;2023-09-18T09:00:12;100393.53;;;19.40;83.76
78444;BME280;67739;52.986;8.894;2023-09-18T09:02:43;100388.41;;;19.47;83.43
78444;BME280;67739;52.986;8.894;2023-09-18T09:05:08;100395.00;;;19.54;83.47
78444;BME280;67739;52.986;8.894;2023-09-18T09:07:33;100402.47;;;19.62;83.33
78444;BME280;67739;52.986;8.894;2023-09-18T09:09:59;100410.06;;;19.68;83.41
78444;BME280;67739;52.986;8.894;2023-09-18T09:12:56;100415.69;;;19.76;83.45
78444;BME280;67739;52.986;8.894;2023-09-18T09:15:34;100411.38;;;19.83;83.14
78444;BME280;67739;52.986;8.894;2023-09-18T09:18:11;100400.78;;;19.90;82.69
78444;BME280;67739;52.986;8.894;2023-09-18T09:20:37;100399.34;;;19.95;82.42
78444;BME280;67739;52.986;8.894;2023-09-18T09:23:04;100397.91;;;20.01;82.57
78444;BME280;67739;52.986;8.894;2023-09-18T09:25:31;100409.06;;;20.07;82.27
78444;BME280;67739;52.986;8.894;2023-09-18T09:28:02;100420.25;;;20.14;82.33
78444;BME280;67739;52.986;8.894;2023-09-18T09:30:31;100401.63;;;20.19;81.54
78444;BME280;67739;52.986;8.894;2023-09-18T09:32:58;100402.19;;;20.23;81.71
78444;BME280;67739;52.986;8.894;2023-09-18T09:35:32;100408.06;;;20.28;81.36
78444;BME280;67739;52.986;8.894;2023-09-18T09:38:08;100414.63;;;20.35;81.05
78444;BME280;67739;52.986;8.894;2023-09-18T09:40:34;100408.78;;;20.39;81.20
78444;BME280;67739;52.986;8.894;2023-09-18T09:43:01;100408.34;;;20.44;80.63
78444;BME280;67739;52.986;8.894;2023-09-18T09:45:29;100420.53;;;20.50;80.54
78444;BME280;67739;52.986;8.894;2023-09-18T09:47:57;100424.53;;;20.55;80.52
78444;BME280;67739;52.986;8.894;2023-09-18T09:50:23;100408.63;;;20.60;80.49
78444;BME280;67739;52.986;8.894;2023-09-18T09:52:51;100411.75;;;20.65;80.39
78444;BME280;67739;52.986;8.894;2023-09-18T09:55:20;100424.94;;;20.70;80.16
78444;BME280;67739;52.986;8.894;2023-09-18T09:57:51;100424.50;;;20.74;80.10
78444;BME280;67739;52.986;8.894;2023-09-18T10:00:17;100428.47;;;20.80;79.72
78444;BME280;67739;52.986;8.894;2023-09-18T10:02:57;100438.09;;;20.84;79.73
78444;BME280;67739;52.986;8.894;2023-09-18T10:05:28;100428.63;;;20.88;79.44
78444;BME280;67739;52.986;8.894;2023-09-18T10:07:57;100428.16;;;20.93;79.17
78444;BME280;67739;52.986;8.894;2023-09-18T10:10:26;100414.78;;;20.99;79.13
78444;BME280;67739;52.986;8.894;2023-09-18T10:12:55;100432.44;;;21.05;79.38
78444;BME280;67739;52.986;8.894;2023-09-18T10:15:23;100447.31;;;21.10;78.99
78444;BME280;67739;52.986;8.894;2023-09-18T10:17:50;100436.97;;;21.14;78.45
78444;BME280;67739;52.986;8.894;2023-09-18T10:20:21;100437.44;;;21.19;78.58
78444;BME280;67739;52.986;8.894;2023-09-18T10:22:52;100438.81;;;21.23;78.70
78444;BME280;67739;52.986;8.894;2023-09-18T10:25:23;100441.81;;;21.30;78.31
78444;BME280;67739;52.986;8.894;2023-09-18T10:27:51;100441.19;;;21.36;78.36
78444;BME280;67739;52.986;8.894;2023-09-18T10:30:23;100445.19;;;21.41;78.33
78444;BME280;67739;52.986;8.894;2023-09-18T10:32:50;100441.88;;;21.47;77.88
78444;BME280;67739;52.986;8.894;2023-09-18T10:35:15;100436.81;;;21.52;77.73
78444;BME280;67739;52.986;8.894;2023-09-18T10:37:42;100450.84;;;21.58;77.80
78444;BME280;67739;52.986;8.894;2023-09-18T10:40:10;100455.72;;;21.64;77.63
78444;BME280;67739;52.986;8.894;2023-09-18T10:42:40;100453.66;;;21.66;77.21
78444;BME280;67739;52.986;8.894;2023-09-18T10:45:11;100447.91;;;21.69;77.06
78444;BME280;67739;52.986;8.894;2023-09-18T10:47:42;100450.91;;;21.75;76.63
78444;BME280;67739;52.986;8.894;2023-09-18T10:50:10;100447.69;;;21.80;76.64
78444;BME280;67739;52.986;8.894;2023-09-18T10:52:42;100439.75;;;21.86;76.47
78444;BME280;67739;52.986;8.894;2023-09-18T10:55:12;100439.13;;;21.93;76.41
78444;BME280;67739;52.986;8.894;2023-09-18T10:57:49;100441.97;;;22.01;76.21
78444;BME280;67739;52.986;8.894;2023-09-18T11:00:16;100440.50;;;22.06;75.94
78444;BME280;67739;52.986;8.894;2023-09-18T11:02:42;100439.00;;;22.12;75.84
78444;BME280;67739;52.986;8.894;2023-09-18T11:05:07;100434.78;;;22.17;75.76
78444;BME280;67739;52.986;8.894;2023-09-18T11:07:33;100440.81;;;22.21;75.40
78444;BME280;67739;52.986;8.894;2023-09-18T11:09:58;100449.53;;;22.25;75.30
78444;BME280;67739;52.986;8.894;2023-09-18T11:12:43;100447.03;;;22.31;75.50
78444;BME280;67739;52.986;8.894;2023-09-18T11:15:09;100462.97;;;22.36;75.41
78444;BME280;67739;52.986;8.894;2023-09-18T11:17:58;100461.63;;;22.40;75.33
78444;BME280;67739;52.986;8.894;2023-09-18T11:20:25;100460.28;;;22.44;75.34
78444;BME280;67739;52.986;8.894;2023-09-18T11:22:58;100453.34;;;22.49;75.18
78444;BME280;67739;52.986;8.894;2023-09-18T11:25:42;100460.03;;;22.55;75.25
78444;BME280;67739;52.986;8.894;2023-09-18T11:28:31;100471.06;;;22.63;74.98
78444;BME280;67739;52.986;8.894;2023-09-18T11:30:58;100464.63;;;22.72;74.95
78444;BME280;67739;52.986;8.894;2023-09-18T11:33:36;100467.44;;;22.80;74.90
78444;BME280;67739;52.986;8.894;2023-09-18T11:36:28;100462.88;;;22.89;74.68
78444;BME280;67739;52.986;8.894;2023-09-18T11:38:56;100460.19;;;22.97;74.66
78444;BME280;67739;52.986;8.894;2023-09-18T11:41:27;100451.19;;;23.05;74.30
78444;BME280;67739;52.986;8.894;2023-09-18T11:46:48;100453.16;;;23.20;74.03
78444;BME280;67739;52.986;8.894;2023-09-18T11:49:19;100460.22;;;23.31;73.92
78444;BME280;67739;52.986;8.894;2023-09-18T11:51:47;100455.63;;;23.40;73.93
78444;BME280;67739;52.986;8.894;2023-09-18T11:54:12;100471.25;;;23.47;73.43
78444;BME280;67739;52.986;8.894;2023-09-18T11:56:39;100472.00;;;23.57;73.55
78444;BME280;67739;52.986;8.894;2023-09-18T11:59:05;100479.03;;;23.68;73.25
78444;BME280;67739;52.986;8.894;2023-09-18T12:01:32;100472.59;;;23.77;73.43
78444;BME280;67739;52.986;8.894;2023-09-18T12:04:02;100474.16;;;23.88;73.59
78444;BME280;67739;52.986;8.894;2023-09-18T12:06:33;100468.69;;;23.96;73.52
78444;BME280;67739;52.986;8.894;2023-09-18T12:08:58;100477.63;;;24.06;73.47
78444;BME280;67739;52.986;8.894;2023-09-18T12:11:25;100464.09;;;24.13;73.16
78444;BME280;67739;52.986;8.894;2023-09-18T12:13:51;100466.16;;;24.19;73.25
78444;BME280;67739;52.986;8.894;2023-09-18T12:16:16;100459.16;;;24.24;73.32
78444;BME280;67739;52.986;8.894;2023-09-18T12:18:46;100459.34;;;24.31;73.20
78444;BME280;67739;52.986;8.894;2023-09-18T12:21:14;100472.56;;;24.36;73.03
78444;BME280;67739;52.986;8.894;2023-09-18T12:23:41;100463.78;;;24.40;72.66
78444;BME280;67739;52.986;8.894;2023-09-18T12:26:11;100454.91;;;24.46;72.50
78444;BME280;67739;52.986;8.894;2023-09-18T12:28:39;100454.72;;;24.48;71.90
78444;BME280;67739;52.986;8.894;2023-09-18T12:31:04;100450.09;;;24.48;71.66
78444;BME280;67739;52.986;8.894;2023-09-18T12:33:34;100461.41;;;24.53;71.53
78444;BME280;67739;52.986;8.894;2023-09-18T12:36:00;100462.44;;;24.60;71.56
78444;BME280;67739;52.986;8.894;2023-09-18T12:38:25;100462.25;;;24.70;71.58
78444;BME280;67739;52.986;8.894;2023-09-18T12:40:53;100459.34;;;24.80;71.50
78444;BME280;67739;52.986;8.894;2023-09-18T12:43:20;100461.88;;;24.89;71.39
78444;BME280;67739;52.986;8.894;2023-09-18T12:45:48;100461.25;;;24.95;71.07
78444;BME280;67739;52.986;8.894;2023-09-18T12:48:14;100463.25;;;25.01;71.25
78444;BME280;67739;52.986;8.894;2023-09-18T12:50:40;100462.19;;;25.11;71.06
78444;BME280;67739;52.986;8.894;2023-09-18T12:53:10;100457.56;;;25.19;70.93
78444;BME280;67739;52.986;8.894;2023-09-18T12:55:36;100459.22;;;25.28;70.75
78444;BME280;67739;52.986;8.894;2023-09-18T12:58:02;100460.75;;;25.39;70.92